Misión y Visión

La misión es proporcionar información fiable a la navegación aérea, contribuyendo a la seguridad, regularidad y eficiencia de la Navegación Aérea Internacional

La visión es contribuir sustancialmente al desarrollo de conocimientos y a la utilización de la meteorología aeronáutica a nivel nacional e internacional, mediante la innovación y la coparticipación con sectores sociales y productivos de la sociedad.

 
  Inicio
  Metar
  Taf
  Wintemp
  SIGMET
  Avisos
  Pronósticos
  Carpeta Meteorologica
  Imágenes Satelitales
  Climatología Aeronáutica
   
  ¿Quienes Somos?
  Contacto
  Eventos



DIRECCIONES PARA INFORMES NACIONALES E INTERNACIONALES
(Metar /Speci - TAF)



http://adds.aviationweather.gov/tafs/index.php

http://www.ogimet.com/metars.phtml



PRONÓSTICOS DE AERÓDROMO

Cuando sea necesario, el encabezamiento abreviado puede incluir un cuarto grupo consistente en tres letras para identificar los boletines demorados (RRA), corregidos(CCA) o enmendados (AAA). Los boletines adicionales demorados, corregidos o enmendados deben identificarse con las letras RRB, RRC, etc.; CCB, CCC,etc.;AAB, AAC,etc.



ESTACIONES DESCRIPCION
MPTO (M) 241600Z 14003KT 9000 SCT020TCU 33/26 Q1011 NOSIG RMK TCU N HZ ALQDS=  
MPBO (M) 241700Z 09003KT 9999 SCT020 SCT090 Q1012=  
MPCH (M) 241700Z 03006KT 9999 FEW030 SCT070///// Q1013=  
MPSA (M) 241700Z 00000KT 9999 SCT018 32/25 Q1010=  
MPCE (M) 241700Z 33005KT 9999 SCT020 SCT100 34/23 Q1010=  
MPPN (M) 241600Z 36010KT 9000 SCT020 SCT100 HZ ALQDS=  
MPSM (M)  
MPJE (M)  
MPPA (M) 241700Z 25006KT 9000 SCT018 33/// Q1010 RMK HZ ALQDS=  
MPMG (M) 241700Z 35007KT 9999 SCT018TCU 32/25 Q1009 NOSIG TCU NE=  
MPDA (M) 241700Z 26008KT 9999 SCT016 33/25 Q1009=  
MPVR (M) 241600Z 29008KT 9000 SCT018TCU BKN080 TCU SW/NW HZ ALQDS=  
MPWN (M)  
MPOA (M) 241600Z 00000KT 9999 SCT025 SCT080 Q1011=  
MPMF (M) 241500Z NIL=  
MPEJ (M) 241600Z 30006KT 9000 VCSH SCT020TCU SCT100 30/29 Q1011 RMK HZ ALQDS PCPN/TCU NW/E=  


CLIMATICAS

MPTO

22-05-2017

 

PCPN (mm)

T° MAX

T° MIN

VIENTO MAX (KT)

HORA

VIENTO PREDOM (KT)

0.0

30.6

24.2

13006KT

1800Z

     CALMO

 

CLIMATICAS

MPMG

23-05-2017

PCPN (mm)

T° MAX T° MIN VIENTO MAX (KT) HORA VIENTO PREDOM (KT)

0.0

30.8 25.4 18006KT 2000Z ESE

 

 
 



























  Noticias AAC
  Directorio
  Contáctenos
  Historia
  Quejas y Sugerencias
  Etica y Transparencia

  Gestión SSP/SMS
  Seguridad Aérea
  Navegación Aérea
  Transporte Aéreo

  Tramites
  Áeronaves de Alquiler

  Meteorología
  I.S.F.P.A
  Notam
  Peligro Aviario
  AVSEC
  UPIA
  Permisos
 




DECLARACIÓN DE PRIVACIDAD